sensor_id;sensor_type;location;lat;lon;timestamp;pressure;altitude;pressure_sealevel;temperature;humidity
51417;BME280;50158;51.528;6.982;2022-12-18T00:00:20;65630;;;-6.97;100
51417;BME280;50158;51.528;6.982;2022-12-18T00:02:49;65600;;;-7.25;100
51417;BME280;50158;51.528;6.982;2022-12-18T00:05:17;65600;;;-7.3;100
51417;BME280;50158;51.528;6.982;2022-12-18T00:07:45;65610;;;-7.17;100
51417;BME280;50158;51.528;6.982;2022-12-18T00:10:14;65620;;;-7.11;100
51417;BME280;50158;51.528;6.982;2022-12-18T00:12:42;65630;;;-6.96;100
51417;BME280;50158;51.528;6.982;2022-12-18T00:15:10;65640;;;-6.93;100
51417;BME280;50158;51.528;6.982;2022-12-18T00:17:38;65620;;;-7.04;100
51417;BME280;50158;51.528;6.982;2022-12-18T00:20:07;65640;;;-6.93;100
51417;BME280;50158;51.528;6.982;2022-12-18T00:22:35;65620;;;-7.1;100
51417;BME280;50158;51.528;6.982;2022-12-18T00:26:59;65730;;;-6.03;100
51417;BME280;50158;51.528;6.982;2022-12-18T00:29:27;65680;;;-6.49;100
51417;BME280;50158;51.528;6.982;2022-12-18T00:31:55;65640;;;-6.92;100
51417;BME280;50158;51.528;6.982;2022-12-18T00:34:24;65640;;;-6.94;100
51417;BME280;50158;51.528;6.982;2022-12-18T00:36:52;65630;;;-6.96;100
51417;BME280;50158;51.528;6.982;2022-12-18T00:39:20;65620;;;-7.06;100
51417;BME280;50158;51.528;6.982;2022-12-18T00:41:48;65620;;;-7.13;100
51417;BME280;50158;51.528;6.982;2022-12-18T00:44:17;65620;;;-7.11;100
51417;BME280;50158;51.528;6.982;2022-12-18T00:46:45;65630;;;-7.04;100
51417;BME280;50158;51.528;6.982;2022-12-18T00:49:14;65680;;;-6.49;100
51417;BME280;50158;51.528;6.982;2022-12-18T00:51:42;65610;;;-7.16;100
51417;BME280;50158;51.528;6.982;2022-12-18T00:54:11;65590;;;-7.4;100
51417;BME280;50158;51.528;6.982;2022-12-18T00:56:38;65580;;;-7.48;100
51417;BME280;50158;51.528;6.982;2022-12-18T00:59:06;65570;;;-7.57;100
51417;BME280;50158;51.528;6.982;2022-12-18T01:01:35;65600;;;-7.32;100
51417;BME280;50158;51.528;6.982;2022-12-18T01:04:03;65590;;;-7.34;100
51417;BME280;50158;51.528;6.982;2022-12-18T01:08:59;65570;;;-7.59;100
51417;BME280;50158;51.528;6.982;2022-12-18T01:11:28;65550;;;-7.71;100
51417;BME280;50158;51.528;6.982;2022-12-18T01:13:59;65600;;;-7.32;100
51417;BME280;50158;51.528;6.982;2022-12-18T01:16:24;65590;;;-7.4;100
51417;BME280;50158;51.528;6.982;2022-12-18T01:18:53;65580;;;-7.42;100
51417;BME280;50158;51.528;6.982;2022-12-18T01:21:21;65590;;;-7.33;100
51417;BME280;50158;51.528;6.982;2022-12-18T01:23:51;65600;;;-7.31;100
51417;BME280;50158;51.528;6.982;2022-12-18T01:26:17;65600;;;-7.25;100
51417;BME280;50158;51.528;6.982;2022-12-18T01:28:46;65590;;;-7.33;100
51417;BME280;50158;51.528;6.982;2022-12-18T01:33:09;65590;;;-7.36;100
51417;BME280;50158;51.528;6.982;2022-12-18T01:35:41;65590;;;-7.43;100
51417;BME280;50158;51.528;6.982;2022-12-18T01:40:56;65580;;;-7.49;100
51417;BME280;50158;51.528;6.982;2022-12-18T01:43:19;65580;;;-7.43;100
51417;BME280;50158;51.528;6.982;2022-12-18T01:45:47;65570;;;-7.51;100
51417;BME280;50158;51.528;6.982;2022-12-18T01:48:15;65590;;;-7.41;100
51417;BME280;50158;51.528;6.982;2022-12-18T01:50:44;65590;;;-7.39;100
51417;BME280;50158;51.528;6.982;2022-12-18T01:53:17;65580;;;-7.43;100
51417;BME280;50158;51.528;6.982;2022-12-18T01:55:45;65580;;;-7.5;100
51417;BME280;50158;51.528;6.982;2022-12-18T01:58:09;65590;;;-7.33;100
51417;BME280;50158;51.528;6.982;2022-12-18T02:00:37;65590;;;-7.4;100
51417;BME280;50158;51.528;6.982;2022-12-18T02:03:05;65590;;;-7.41;100
51417;BME280;50158;51.528;6.982;2022-12-18T02:05:36;65590;;;-7.37;100
51417;BME280;50158;51.528;6.982;2022-12-18T02:08:07;65580;;;-7.45;100
51417;BME280;50158;51.528;6.982;2022-12-18T02:10:36;65570;;;-7.62;100
51417;BME280;50158;51.528;6.982;2022-12-18T02:13:02;65560;;;-7.61;100
51417;BME280;50158;51.528;6.982;2022-12-18T02:15:32;65580;;;-7.44;100
51417;BME280;50158;51.528;6.982;2022-12-18T02:17:57;65580;;;-7.48;100
51417;BME280;50158;51.528;6.982;2022-12-18T02:20:27;65570;;;-7.59;100
51417;BME280;50158;51.528;6.982;2022-12-18T02:23:04;65580;;;-7.45;100
51417;BME280;50158;51.528;6.982;2022-12-18T02:25:24;65570;;;-7.53;100
51417;BME280;50158;51.528;6.982;2022-12-18T02:29:44;65590;;;-7.41;100
51417;BME280;50158;51.528;6.982;2022-12-18T02:32:14;65620;;;-7.11;100
51417;BME280;50158;51.528;6.982;2022-12-18T02:34:40;65590;;;-7.34;100
51417;BME280;50158;51.528;6.982;2022-12-18T02:37:09;65600;;;-7.3;100
51417;BME280;50158;51.528;6.982;2022-12-18T02:39:37;65600;;;-7.24;100
51417;BME280;50158;51.528;6.982;2022-12-18T02:42:05;65590;;;-7.38;100
51417;BME280;50158;51.528;6.982;2022-12-18T02:44:35;65590;;;-7.33;100
51417;BME280;50158;51.528;6.982;2022-12-18T02:47:01;65600;;;-7.25;100
51417;BME280;50158;51.528;6.982;2022-12-18T02:49:35;65590;;;-7.33;100
51417;BME280;50158;51.528;6.982;2022-12-18T02:52:01;65580;;;-7.51;100
51417;BME280;50158;51.528;6.982;2022-12-18T02:54:32;65570;;;-7.54;100
51417;BME280;50158;51.528;6.982;2022-12-18T02:56:55;65580;;;-7.49;100
51417;BME280;50158;51.528;6.982;2022-12-18T02:59:31;65610;;;-7.21;100
51417;BME280;50158;51.528;6.982;2022-12-18T03:02:00;65610;;;-7.22;100
51417;BME280;50158;51.528;6.982;2022-12-18T03:04:23;65600;;;-7.28;100
51417;BME280;50158;51.528;6.982;2022-12-18T03:06:49;65580;;;-7.49;100
51417;BME280;50158;51.528;6.982;2022-12-18T03:09:18;65570;;;-7.55;100
51417;BME280;50158;51.528;6.982;2022-12-18T03:11:47;65600;;;-7.28;100
51417;BME280;50158;51.528;6.982;2022-12-18T03:14:12;65580;;;-7.44;100
51417;BME280;50158;51.528;6.982;2022-12-18T03:16:41;65600;;;-7.32;100
51417;BME280;50158;51.528;6.982;2022-12-18T03:19:14;65590;;;-7.37;100
51417;BME280;50158;51.528;6.982;2022-12-18T03:21:40;65590;;;-7.37;100
51417;BME280;50158;51.528;6.982;2022-12-18T03:24:06;65580;;;-7.46;100
51417;BME280;50158;51.528;6.982;2022-12-18T03:26:34;65580;;;-7.51;100
51417;BME280;50158;51.528;6.982;2022-12-18T03:30:58;65540;;;-7.81;100
51417;BME280;50158;51.528;6.982;2022-12-18T03:33:43;65550;;;-7.73;100
51417;BME280;50158;51.528;6.982;2022-12-18T03:35:54;65560;;;-7.65;100
51417;BME280;50158;51.528;6.982;2022-12-18T03:38:22;65560;;;-7.62;100
51417;BME280;50158;51.528;6.982;2022-12-18T03:40:59;65560;;;-7.63;100
51417;BME280;50158;51.528;6.982;2022-12-18T03:43:24;65560;;;-7.65;100
51417;BME280;50158;51.528;6.982;2022-12-18T03:45:52;65560;;;-7.65;100
51417;BME280;50158;51.528;6.982;2022-12-18T03:48:17;65560;;;-7.67;100
51417;BME280;50158;51.528;6.982;2022-12-18T03:50:46;65560;;;-7.67;100
51417;BME280;50158;51.528;6.982;2022-12-18T03:55:40;65560;;;-7.62;100
51417;BME280;50158;51.528;6.982;2022-12-18T03:58:08;65570;;;-7.53;100
51417;BME280;50158;51.528;6.982;2022-12-18T04:00:37;65580;;;-7.44;100
51417;BME280;50158;51.528;6.982;2022-12-18T04:03:05;65590;;;-7.41;100
51417;BME280;50158;51.528;6.982;2022-12-18T04:05:33;65550;;;-7.71;100
51417;BME280;50158;51.528;6.982;2022-12-18T04:10:46;65529.99999999999;;;-7.94;100
51417;BME280;50158;51.528;6.982;2022-12-18T04:15:43;65550;;;-7.73;100
51417;BME280;50158;51.528;6.982;2022-12-18T04:18:11;65560;;;-7.67;100
51417;BME280;50158;51.528;6.982;2022-12-18T04:23:08;65540;;;-7.81;100
51417;BME280;50158;51.528;6.982;2022-12-18T04:25:36;65550;;;-7.72;100
51417;BME280;50158;51.528;6.982;2022-12-18T04:28:04;65880;;;-4.67;100
51417;BME280;50158;51.528;6.982;2022-12-18T04:30:32;65670;;;-6.64;100
51417;BME280;50158;51.528;6.982;2022-12-18T04:33:01;65560;;;-7.63;100
51417;BME280;50158;51.528;6.982;2022-12-18T04:37:24;65540;;;-7.79;100
51417;BME280;50158;51.528;6.982;2022-12-18T04:39:53;65529.99999999999;;;-7.94;100
51417;BME280;50158;51.528;6.982;2022-12-18T04:42:21;65529.99999999999;;;-7.93;100
51417;BME280;50158;51.528;6.982;2022-12-18T04:44:49;65529.99999999999;;;-7.96;100
51417;BME280;50158;51.528;6.982;2022-12-18T04:47:18;65540;;;-7.87;100
51417;BME280;50158;51.528;6.982;2022-12-18T04:49:46;65529.99999999999;;;-7.93;100
51417;BME280;50158;51.528;6.982;2022-12-18T04:52:14;65540;;;-7.88;100
51417;BME280;50158;51.528;6.982;2022-12-18T04:54:42;65540;;;-7.87;100
51417;BME280;50158;51.528;6.982;2022-12-18T04:57:11;65540;;;-7.82;100
51417;BME280;50158;51.528;6.982;2022-12-18T04:59:39;65550;;;-7.72;100
51417;BME280;50158;51.528;6.982;2022-12-18T05:02:07;65540;;;-7.83;100
51417;BME280;50158;51.528;6.982;2022-12-18T05:04:36;65550;;;-7.76;100
51417;BME280;50158;51.528;6.982;2022-12-18T05:07:04;65560;;;-7.69;100
51417;BME280;50158;51.528;6.982;2022-12-18T05:09:32;65550;;;-7.73;100
51417;BME280;50158;51.528;6.982;2022-12-18T05:12:00;65540;;;-7.82;100
51417;BME280;50158;51.528;6.982;2022-12-18T05:14:29;65550;;;-7.75;100
51417;BME280;50158;51.528;6.982;2022-12-18T05:16:57;65540;;;-7.81;100
51417;BME280;50158;51.528;6.982;2022-12-18T05:19:25;65550;;;-7.74;100
51417;BME280;50158;51.528;6.982;2022-12-18T05:21:53;65570;;;-7.6;100
51417;BME280;50158;51.528;6.982;2022-12-18T05:24:22;65560;;;-7.65;100
51417;BME280;50158;51.528;6.982;2022-12-18T05:26:50;65550;;;-7.75;100
51417;BME280;50158;51.528;6.982;2022-12-18T05:29:18;65540;;;-7.8;100
51417;BME280;50158;51.528;6.982;2022-12-18T05:33:42;65550;;;-7.8;100
51417;BME280;50158;51.528;6.982;2022-12-18T05:36:10;65560;;;-7.65;100
51417;BME280;50158;51.528;6.982;2022-12-18T05:38:39;65570;;;-7.55;100
51417;BME280;50158;51.528;6.982;2022-12-18T05:41:07;65560;;;-7.67;100
51417;BME280;50158;51.528;6.982;2022-12-18T05:43:36;65570;;;-7.51;100
51417;BME280;50158;51.528;6.982;2022-12-18T05:46:05;65570;;;-7.57;100
51417;BME280;50158;51.528;6.982;2022-12-18T05:48:32;65580;;;-7.52;100
51417;BME280;50158;51.528;6.982;2022-12-18T05:51:08;65560;;;-7.64;100
51417;BME280;50158;51.528;6.982;2022-12-18T05:53:28;65560;;;-7.65;100
51417;BME280;50158;51.528;6.982;2022-12-18T05:55:59;65560;;;-7.61;100
51417;BME280;50158;51.528;6.982;2022-12-18T05:58:25;65590;;;-7.36;100
51417;BME280;50158;51.528;6.982;2022-12-18T06:00:53;65590;;;-7.39;100
51417;BME280;50158;51.528;6.982;2022-12-18T06:03:21;65570;;;-7.53;100
51417;BME280;50158;51.528;6.982;2022-12-18T06:05:50;65580;;;-7.48;100
51417;BME280;50158;51.528;6.982;2022-12-18T06:08:18;65590;;;-7.36;100
51417;BME280;50158;51.528;6.982;2022-12-18T06:10:49;65570;;;-7.55;100
51417;BME280;50158;51.528;6.982;2022-12-18T06:13:14;65580;;;-7.48;100
51417;BME280;50158;51.528;6.982;2022-12-18T06:15:43;65580;;;-7.48;100
51417;BME280;50158;51.528;6.982;2022-12-18T06:18:11;65580;;;-7.48;100
51417;BME280;50158;51.528;6.982;2022-12-18T06:20:39;65580;;;-7.48;100
51417;BME280;50158;51.528;6.982;2022-12-18T06:23:08;65580;;;-7.41;100
51417;BME280;50158;51.528;6.982;2022-12-18T06:25:38;65580;;;-7.45;100
51417;BME280;50158;51.528;6.982;2022-12-18T06:28:04;65610;;;-7.17;100
51417;BME280;50158;51.528;6.982;2022-12-18T06:30:32;65620;;;-7.1;100
51417;BME280;50158;51.528;6.982;2022-12-18T06:34:56;65620;;;-7.09;100
51417;BME280;50158;51.528;6.982;2022-12-18T06:40:09;65690;;;-6.46;100
51417;BME280;50158;51.528;6.982;2022-12-18T06:42:37;65600;;;-7.28;100
51417;BME280;50158;51.528;6.982;2022-12-18T06:45:06;65550;;;-7.75;100
51417;BME280;50158;51.528;6.982;2022-12-18T06:47:34;65510;;;-8.08;100
51417;BME280;50158;51.528;6.982;2022-12-18T06:50:02;65510;;;-8.17;100
51417;BME280;50158;51.528;6.982;2022-12-18T06:52:31;65510;;;-8.14;100
51417;BME280;50158;51.528;6.982;2022-12-18T06:54:59;65520.00000000001;;;-7.99;100
51417;BME280;50158;51.528;6.982;2022-12-18T06:57:27;65529.99999999999;;;-7.97;100
51417;BME280;50158;51.528;6.982;2022-12-18T06:59:55;65510;;;-8.09;100
51417;BME280;50158;51.528;6.982;2022-12-18T07:02:24;65520.00000000001;;;-7.99;100
51417;BME280;50158;51.528;6.982;2022-12-18T07:04:52;65640;;;-6.9;100
51417;BME280;50158;51.528;6.982;2022-12-18T07:07:20;65460;;;-8.6;100
51417;BME280;50158;51.528;6.982;2022-12-18T07:09:49;65340;;;-9.72;100
51417;BME280;50158;51.528;6.982;2022-12-18T07:12:17;65300;;;-10.14;100
51417;BME280;50158;51.528;6.982;2022-12-18T07:14:45;65260;;;-10.48;100
51417;BME280;50158;51.528;6.982;2022-12-18T07:17:13;65250;;;-10.58;100
51417;BME280;50158;51.528;6.982;2022-12-18T07:19:41;65250;;;-10.6;100
51417;BME280;50158;51.528;6.982;2022-12-18T07:22:10;65260;;;-10.51;100
51417;BME280;50158;51.528;6.982;2022-12-18T07:24:38;65250;;;-10.55;100
51417;BME280;50158;51.528;6.982;2022-12-18T07:27:06;65250;;;-10.6;100
51417;BME280;50158;51.528;6.982;2022-12-18T07:29:35;65240;;;-10.66;100
51417;BME280;50158;51.528;6.982;2022-12-18T07:32:03;65229.99999999999;;;-10.72;100
51417;BME280;50158;51.528;6.982;2022-12-18T07:36:27;65240;;;-10.61;100
51417;BME280;50158;51.528;6.982;2022-12-18T07:38:55;65240;;;-10.65;100
51417;BME280;50158;51.528;6.982;2022-12-18T07:41:23;65250;;;-10.57;100
51417;BME280;50158;51.528;6.982;2022-12-18T07:43:51;65250;;;-10.54;100
51417;BME280;50158;51.528;6.982;2022-12-18T07:46:20;65260;;;-10.46;100
51417;BME280;50158;51.528;6.982;2022-12-18T07:48:48;65270.00000000001;;;-10.38;100
51417;BME280;50158;51.528;6.982;2022-12-18T07:51:17;65270.00000000001;;;-10.37;100
51417;BME280;50158;51.528;6.982;2022-12-18T07:53:45;65279.99999999999;;;-10.28;100
51417;BME280;50158;51.528;6.982;2022-12-18T07:56:13;65279.99999999999;;;-10.24;100
51417;BME280;50158;51.528;6.982;2022-12-18T07:58:41;65300;;;-10.05;100
51417;BME280;50158;51.528;6.982;2022-12-18T08:01:10;65310;;;-9.99;100
51417;BME280;50158;51.528;6.982;2022-12-18T08:03:39;65329.99999999999;;;-9.76;100
51417;BME280;50158;51.528;6.982;2022-12-18T08:06:07;65329.99999999999;;;-9.77;100
51417;BME280;50158;51.528;6.982;2022-12-18T08:08:34;65350;;;-9.6;100
51417;BME280;50158;51.528;6.982;2022-12-18T08:11:03;65360;;;-9.53;100
51417;BME280;50158;51.528;6.982;2022-12-18T08:13:31;65360;;;-9.49;100
51417;BME280;50158;51.528;6.982;2022-12-18T08:16:00;65370.00000000001;;;-9.42;100
51417;BME280;50158;51.528;6.982;2022-12-18T08:18:27;65379.99999999999;;;-9.38;100
51417;BME280;50158;51.528;6.982;2022-12-18T08:20:56;65379.99999999999;;;-9.3;100
51417;BME280;50158;51.528;6.982;2022-12-18T08:23:24;65390;;;-9.21;100
51417;BME280;50158;51.528;6.982;2022-12-18T08:25:52;65420.00000000001;;;-8.97;100
51417;BME280;50158;51.528;6.982;2022-12-18T08:28:20;65429.99999999999;;;-8.89;100
51417;BME280;50158;51.528;6.982;2022-12-18T08:30:51;65460;;;-8.59;100
51417;BME280;50158;51.528;6.982;2022-12-18T08:33:17;65479.99999999999;;;-8.37;100
51417;BME280;50158;51.528;6.982;2022-12-18T08:35:45;65520.00000000001;;;-8.01;100
51417;BME280;50158;51.528;6.982;2022-12-18T08:38:14;65529.99999999999;;;-7.93;100
51417;BME280;50158;51.528;6.982;2022-12-18T08:42:37;65550;;;-7.78;100
51417;BME280;50158;51.528;6.982;2022-12-18T08:45:06;65560;;;-7.66;100
51417;BME280;50158;51.528;6.982;2022-12-18T08:47:34;65570;;;-7.55;100
51417;BME280;50158;51.528;6.982;2022-12-18T08:50:02;65580;;;-7.51;100
51417;BME280;50158;51.528;6.982;2022-12-18T08:52:31;65590;;;-7.33;100
51417;BME280;50158;51.528;6.982;2022-12-18T08:54:59;65590;;;-7.32;100
51417;BME280;50158;51.528;6.982;2022-12-18T08:57:27;65640;;;-6.9;100
51417;BME280;50158;51.528;6.982;2022-12-18T08:59:55;65650;;;-6.8;100
51417;BME280;50158;51.528;6.982;2022-12-18T09:02:23;65670;;;-6.6;100
51417;BME280;50158;51.528;6.982;2022-12-18T09:04:52;65690;;;-6.42;100
51417;BME280;50158;51.528;6.982;2022-12-18T09:10:05;65740;;;-5.99;100
51417;BME280;50158;51.528;6.982;2022-12-18T09:12:33;65760;;;-5.81;100
51417;BME280;50158;51.528;6.982;2022-12-18T09:15:01;65780;;;-5.62;100
51417;BME280;50158;51.528;6.982;2022-12-18T09:17:30;65780;;;-5.59;100
51417;BME280;50158;51.528;6.982;2022-12-18T09:19:58;65790;;;-5.48;100
51417;BME280;50158;51.528;6.982;2022-12-18T09:22:26;65800;;;-5.38;100
51417;BME280;50158;51.528;6.982;2022-12-18T09:24:54;65820;;;-5.24;100
51417;BME280;50158;51.528;6.982;2022-12-18T09:27:23;65820;;;-5.19;100
51417;BME280;50158;51.528;6.982;2022-12-18T09:29:51;65840;;;-5.06;100
51417;BME280;50158;51.528;6.982;2022-12-18T09:32:19;65850;;;-4.88;100
51417;BME280;50158;51.528;6.982;2022-12-18T09:34:47;65890;;;-4.54;100
51417;BME280;50158;51.528;6.982;2022-12-18T09:37:16;65920;;;-4.29;100
51417;BME280;50158;51.528;6.982;2022-12-18T09:39:44;65980;;;-3.72;100
51417;BME280;50158;51.528;6.982;2022-12-18T09:44:13;66020;;;-3.3;100
51417;BME280;50158;51.528;6.982;2022-12-18T09:46:37;66050;;;-3.06;100
51417;BME280;50158;51.528;6.982;2022-12-18T09:49:06;66060;;;-2.98;100
51417;BME280;50158;51.528;6.982;2022-12-18T09:51:35;66060;;;-2.97;100
51417;BME280;50158;51.528;6.982;2022-12-18T09:54:03;66070;;;-2.91;100
51417;BME280;50158;51.528;6.982;2022-12-18T09:56:31;66050;;;-3.03;100
51417;BME280;50158;51.528;6.982;2022-12-18T09:58:58;66050;;;-3.02;100
51417;BME280;50158;51.528;6.982;2022-12-18T10:01:27;66050;;;-3.03;100
51417;BME280;50158;51.528;6.982;2022-12-18T10:03:54;66060;;;-2.96;100
51417;BME280;50158;51.528;6.982;2022-12-18T10:06:55;66070;;;-2.92;100
51417;BME280;50158;51.528;6.982;2022-12-18T10:09:25;66070;;;-2.89;100
51417;BME280;50158;51.528;6.982;2022-12-18T10:11:29;66060;;;-2.92;100
51417;BME280;50158;51.528;6.982;2022-12-18T10:13:50;66050;;;-3.09;100
51417;BME280;50158;51.528;6.982;2022-12-18T10:16:16;66060;;;-2.93;100
51417;BME280;50158;51.528;6.982;2022-12-18T10:21:15;66110;;;-2.53;100
51417;BME280;50158;51.528;6.982;2022-12-18T10:23:48;66120;;;-2.36;100
51417;BME280;50158;51.528;6.982;2022-12-18T10:26:10;66130;;;-2.3;100
51417;BME280;50158;51.528;6.982;2022-12-18T10:28:38;66150;;;-2.08;100
51417;BME280;50158;51.528;6.982;2022-12-18T10:31:07;66150;;;-2.13;100
51417;BME280;50158;51.528;6.982;2022-12-18T10:33:33;66160;;;-2;100
51417;BME280;50158;51.528;6.982;2022-12-18T10:36:02;66180;;;-1.82;100
51417;BME280;50158;51.528;6.982;2022-12-18T10:40:26;66200;;;-1.62;100
51417;BME280;50158;51.528;6.982;2022-12-18T10:43:28;66230;;;-1.41;100
51417;BME280;50158;51.528;6.982;2022-12-18T10:45:22;66230;;;-1.36;100
51417;BME280;50158;51.528;6.982;2022-12-18T10:47:50;66220;;;-1.46;100
51417;BME280;50158;51.528;6.982;2022-12-18T10:50:19;66240;;;-1.32;100
51417;BME280;50158;51.528;6.982;2022-12-18T10:52:52;66240;;;-1.33;100
51417;BME280;50158;51.528;6.982;2022-12-18T10:57:43;66250;;;-1.19;100
51417;BME280;50158;51.528;6.982;2022-12-18T11:00:20;66240;;;-1.28;100
51417;BME280;50158;51.528;6.982;2022-12-18T11:02:40;66240;;;-1.26;100
51417;BME280;50158;51.528;6.982;2022-12-18T11:05:40;66250;;;-1.22;100
51417;BME280;50158;51.528;6.982;2022-12-18T11:07:52;66260;;;-1.12;100
51417;BME280;50158;51.528;6.982;2022-12-18T11:10:05;66260;;;-1.11;100
51417;BME280;50158;51.528;6.982;2022-12-18T11:12:33;66270;;;-0.96;100
51417;BME280;50158;51.528;6.982;2022-12-18T11:15:01;66280;;;-0.93;100
51417;BME280;50158;51.528;6.982;2022-12-18T11:17:31;66300;;;-0.74;100
51417;BME280;50158;51.528;6.982;2022-12-18T11:19:58;66290;;;-0.77;100
51417;BME280;50158;51.528;6.982;2022-12-18T11:22:28;66270;;;-1.03;100
51417;BME280;50158;51.528;6.982;2022-12-18T11:24:56;66280;;;-0.9;100
51417;BME280;50158;51.528;6.982;2022-12-18T11:27:23;66300;;;-0.72;100
51417;BME280;50158;51.528;6.982;2022-12-18T11:29:51;66310;;;-0.65;100
51417;BME280;50158;51.528;6.982;2022-12-18T11:32:23;66310;;;-0.62;100
51417;BME280;50158;51.528;6.982;2022-12-18T11:34:50;66320;;;-0.57;100
51417;BME280;50158;51.528;6.982;2022-12-18T11:42:21;66330;;;-0.46;100
51417;BME280;50158;51.528;6.982;2022-12-18T11:44:42;66340;;;-0.34;100
51417;BME280;50158;51.528;6.982;2022-12-18T11:47:13;66340;;;-0.33;100
51417;BME280;50158;51.528;6.982;2022-12-18T11:49:37;66340;;;-0.32;100
51417;BME280;50158;51.528;6.982;2022-12-18T11:52:22;66350;;;-0.24;100
51417;BME280;50158;51.528;6.982;2022-12-18T11:54:34;66350;;;-0.24;100
51417;BME280;50158;51.528;6.982;2022-12-18T11:58:05;66370;;;-0.07;100
51417;BME280;50158;51.528;6.982;2022-12-18T11:59:33;66360;;;-0.14;100
51417;BME280;50158;51.528;6.982;2022-12-18T12:02:03;66360;;;-0.18;100
51417;BME280;50158;51.528;6.982;2022-12-18T12:04:31;66370;;;-0.04;100
51417;BME280;50158;51.528;6.982;2022-12-18T12:07:03;66380;;;0.03;100
51417;BME280;50158;51.528;6.982;2022-12-18T12:09:28;66400;;;0.24;100
51417;BME280;50158;51.528;6.982;2022-12-18T12:11:57;66400;;;0.17;100
51417;BME280;50158;51.528;6.982;2022-12-18T12:14:23;66400;;;0.2;100
51417;BME280;50158;51.528;6.982;2022-12-18T12:17:07;66400;;;0.22;100
51417;BME280;50158;51.528;6.982;2022-12-18T12:19:24;66400;;;0.19;100
51417;BME280;50158;51.528;6.982;2022-12-18T12:21:47;66410;;;0.28;100
51417;BME280;50158;51.528;6.982;2022-12-18T12:24:33;66420;;;0.36;100
51417;BME280;50158;51.528;6.982;2022-12-18T12:26:45;66410;;;0.3;100
51417;BME280;50158;51.528;6.982;2022-12-18T12:29:16;66390;;;0.14;100
51417;BME280;50158;51.528;6.982;2022-12-18T12:31:43;66380;;;0.05;100
51417;BME280;50158;51.528;6.982;2022-12-18T12:34:16;66380;;;0.08;100
51417;BME280;50158;51.528;6.982;2022-12-18T12:36:42;66400;;;0.21;100
51417;BME280;50158;51.528;6.982;2022-12-18T12:39:05;66400;;;0.26;100
51417;BME280;50158;51.528;6.982;2022-12-18T12:41:31;66410;;;0.35;100
51417;BME280;50158;51.528;6.982;2022-12-18T12:44:03;66410;;;0.32;100
51417;BME280;50158;51.528;6.982;2022-12-18T12:48:31;66410;;;0.3;100
51417;BME280;50158;51.528;6.982;2022-12-18T12:50:51;66410;;;0.33;100
51417;BME280;50158;51.528;6.982;2022-12-18T12:53:22;66430;;;0.49;100
51417;BME280;50158;51.528;6.982;2022-12-18T12:55:48;66420;;;0.37;100
51417;BME280;50158;51.528;6.982;2022-12-18T12:58:18;66410;;;0.27;100
51417;BME280;50158;51.528;6.982;2022-12-18T13:00:55;66410;;;0.27;100
51417;BME280;50158;51.528;6.982;2022-12-18T13:03:47;66430;;;0.46;100
51417;BME280;50158;51.528;6.982;2022-12-18T13:08:10;66420;;;0.38;100
51417;BME280;50158;51.528;6.982;2022-12-18T13:10:38;66400;;;0.21;100
51417;BME280;50158;51.528;6.982;2022-12-18T13:13:07;66400;;;0.18;100
51417;BME280;50158;51.528;6.982;2022-12-18T13:15:36;66390;;;0.14;100
51417;BME280;50158;51.528;6.982;2022-12-18T13:18:04;66390;;;0.1;100
51417;BME280;50158;51.528;6.982;2022-12-18T13:20:33;66390;;;0.13;100
51417;BME280;50158;51.528;6.982;2022-12-18T13:22:59;66380;;;0.06;100
51417;BME280;50158;51.528;6.982;2022-12-18T13:25:35;66370;;;-0.03;100
51417;BME280;50158;51.528;6.982;2022-12-18T13:27:58;66370;;;-0.07;100
51417;BME280;50158;51.528;6.982;2022-12-18T13:30:41;66370;;;-0.05;100
51417;BME280;50158;51.528;6.982;2022-12-18T13:33:19;66380;;;0.02;100
51417;BME280;50158;51.528;6.982;2022-12-18T13:35:51;66390;;;0.09;100
51417;BME280;50158;51.528;6.982;2022-12-18T13:37:52;66360;;;-0.13;100
51417;BME280;50158;51.528;6.982;2022-12-18T13:40:53;66370;;;-0.06;100
51417;BME280;50158;51.528;6.982;2022-12-18T13:42:45;66360;;;-0.16;100
51417;BME280;50158;51.528;6.982;2022-12-18T13:45:46;66360;;;-0.21;100
51417;BME280;50158;51.528;6.982;2022-12-18T13:49:39;66330;;;-0.43;100
51417;BME280;50158;51.528;6.982;2022-12-18T13:52:22;66340;;;-0.39;100
51417;BME280;50158;51.528;6.982;2022-12-18T13:54:36;66340;;;-0.35;100
51417;BME280;50158;51.528;6.982;2022-12-18T13:57:02;66340;;;-0.32;100
51417;BME280;50158;51.528;6.982;2022-12-18T13:59:34;66350;;;-0.29;100
51417;BME280;50158;51.528;6.982;2022-12-18T14:02:00;66330;;;-0.4;100
51417;BME280;50158;51.528;6.982;2022-12-18T14:04:28;66340;;;-0.35;100
51417;BME280;50158;51.528;6.982;2022-12-18T14:09:49;66330;;;-0.45;100
51417;BME280;50158;51.528;6.982;2022-12-18T14:14:36;66350;;;-0.21;100
51417;BME280;50158;51.528;6.982;2022-12-18T14:17:08;66340;;;-0.32;100
51417;BME280;50158;51.528;6.982;2022-12-18T14:19:33;66340;;;-0.36;100
51417;BME280;50158;51.528;6.982;2022-12-18T14:22:01;66350;;;-0.25;100
51417;BME280;50158;51.528;6.982;2022-12-18T14:24:29;66340;;;-0.34;100
51417;BME280;50158;51.528;6.982;2022-12-18T14:26:58;66350;;;-0.23;100
51417;BME280;50158;51.528;6.982;2022-12-18T14:29:27;66340;;;-0.38;100
51417;BME280;50158;51.528;6.982;2022-12-18T14:32:26;66340;;;-0.32;100
51417;BME280;50158;51.528;6.982;2022-12-18T14:34:22;66350;;;-0.25;100
51417;BME280;50158;51.528;6.982;2022-12-18T14:36:51;66370;;;-0.04;100
51417;BME280;50158;51.528;6.982;2022-12-18T14:39:19;66370;;;-0.04;100
51417;BME280;50158;51.528;6.982;2022-12-18T14:41:48;66340;;;-0.33;100
51417;BME280;50158;51.528;6.982;2022-12-18T14:46:28;66320;;;-0.5;100
51417;BME280;50158;51.528;6.982;2022-12-18T14:48:41;66330;;;-0.49;100
51417;BME280;50158;51.528;6.982;2022-12-18T14:51:24;66320;;;-0.52;100
51417;BME280;50158;51.528;6.982;2022-12-18T14:53:37;66310;;;-0.58;100
51417;BME280;50158;51.528;6.982;2022-12-18T14:56:36;66320;;;-0.52;100
51417;BME280;50158;51.528;6.982;2022-12-18T14:58:32;66310;;;-0.65;100